createdAt,value
2023-01-09T00:00:47.535Z,8.73
2023-01-09T00:03:14.425Z,8.60
2023-01-09T00:05:40.900Z,9.07
2023-01-09T00:08:07.769Z,11.80
2023-01-09T00:10:34.342Z,10.57
2023-01-09T00:13:00.755Z,10.87
2023-01-09T00:15:27.265Z,9.10
2023-01-09T00:17:53.777Z,9.90
2023-01-09T00:20:20.242Z,9.00
2023-01-09T00:22:46.677Z,8.40
2023-01-09T00:25:13.108Z,10.13
2023-01-09T00:27:39.586Z,8.07
2023-01-09T00:30:07.122Z,7.63
2023-01-09T00:32:33.473Z,9.30
2023-01-09T00:34:59.894Z,8.27
2023-01-09T00:38:27.735Z,8.80
2023-01-09T00:40:55.415Z,8.33
2023-01-09T00:43:24.293Z,8.10
2023-01-09T00:45:51.110Z,8.73
2023-01-09T00:48:26.480Z,8.70
2023-01-09T00:50:56.709Z,8.23
2023-01-09T00:53:29.539Z,8.50
2023-01-09T00:55:59.468Z,8.70
2023-01-09T00:58:26.027Z,8.57
2023-01-09T01:00:52.567Z,8.80
2023-01-09T01:03:19.347Z,10.70
2023-01-09T01:06:04.284Z,9.53
2023-01-09T01:08:30.810Z,8.97
2023-01-09T01:10:57.310Z,8.33
2023-01-09T01:13:23.742Z,9.30
2023-01-09T01:15:50.313Z,9.20
2023-01-09T01:18:16.883Z,8.80
2023-01-09T01:20:44.827Z,8.73
2023-01-09T01:23:11.760Z,9.57
2023-01-09T01:25:39.895Z,10.20
2023-01-09T01:28:07.427Z,10.13
2023-01-09T01:30:37.809Z,9.33
2023-01-09T01:33:04.248Z,10.43
2023-01-09T01:35:30.787Z,9.93
2023-01-09T01:37:57.185Z,10.57
2023-01-09T01:40:23.613Z,9.23
2023-01-09T01:42:53.222Z,9.37
2023-01-09T01:45:22.281Z,9.00
2023-01-09T01:47:54.630Z,9.03
2023-01-09T01:50:37.559Z,11.33
2023-01-09T01:53:12.945Z,9.10
2023-01-09T01:55:47.831Z,10.23
2023-01-09T01:58:16.129Z,9.33
2023-01-09T02:00:45.951Z,11.03
2023-01-09T02:03:18.261Z,8.97
2023-01-09T02:05:45.395Z,9.43
2023-01-09T02:08:13.949Z,8.90
2023-01-09T02:10:41.133Z,9.57
2023-01-09T02:13:09.053Z,9.90
2023-01-09T02:15:52.336Z,9.83
2023-01-09T02:18:21.747Z,12.27
2023-01-09T02:21:14.810Z,10.80
2023-01-09T02:24:03.254Z,9.83
2023-01-09T02:26:43.046Z,10.40
2023-01-09T02:29:38.478Z,9.70
2023-01-09T02:32:27.052Z,9.73
2023-01-09T02:35:17.045Z,10.97
2023-01-09T02:37:49.655Z,11.23
2023-01-09T02:40:26.709Z,11.10
2023-01-09T02:42:56.012Z,11.17
2023-01-09T02:45:22.606Z,11.23
2023-01-09T02:47:49.398Z,11.23
2023-01-09T02:50:47.821Z,12.33
2023-01-09T02:53:44.008Z,11.33
2023-01-09T02:56:41.271Z,14.07
2023-01-09T02:59:20.488Z,10.97
2023-01-09T03:01:53.203Z,10.40
2023-01-09T03:04:41.923Z,11.30
2023-01-09T03:07:42.168Z,12.93
2023-01-09T03:10:26.370Z,13.33
2023-01-09T03:12:55.309Z,11.53
2023-01-09T03:15:28.153Z,12.27
2023-01-09T03:17:55.803Z,12.00
2023-01-09T03:20:28.088Z,10.50
2023-01-09T03:22:58.907Z,11.90
2023-01-09T03:25:28.360Z,10.47
2023-01-09T03:28:01.107Z,11.73
2023-01-09T03:30:29.808Z,12.03
2023-01-09T03:32:57.281Z,12.73
2023-01-09T03:35:24.303Z,11.93
2023-01-09T03:37:51.775Z,11.77
2023-01-09T03:40:19.850Z,12.43
2023-01-09T03:42:47.265Z,11.67
2023-01-09T03:45:14.101Z,11.53
2023-01-09T03:47:40.607Z,10.97
2023-01-09T03:50:08.041Z,11.60
2023-01-09T03:52:36.027Z,10.50
2023-01-09T03:55:05.765Z,11.27
2023-01-09T03:57:35.333Z,10.77
2023-01-09T04:00:02.183Z,12.30
2023-01-09T04:02:28.763Z,11.50
2023-01-09T04:04:55.259Z,11.40
2023-01-09T04:07:23.203Z,12.40
2023-01-09T04:09:49.729Z,12.87
2023-01-09T04:12:16.419Z,11.33
2023-01-09T04:14:42.968Z,10.33
2023-01-09T04:17:09.798Z,11.50
2023-01-09T04:19:36.474Z,10.87
2023-01-09T04:22:03.243Z,13.27
2023-01-09T04:24:29.972Z,10.57
2023-01-09T04:26:56.737Z,11.30
2023-01-09T04:29:23.257Z,11.43
2023-01-09T04:31:49.865Z,10.57
2023-01-09T04:34:16.576Z,13.33
2023-01-09T04:36:43.171Z,11.27
2023-01-09T04:39:10.175Z,11.80
2023-01-09T04:41:51.870Z,10.97
2023-01-09T04:44:27.520Z,11.53
2023-01-09T04:46:55.827Z,11.67
2023-01-09T04:49:23.231Z,12.50
2023-01-09T04:51:49.910Z,10.83
2023-01-09T04:54:17.129Z,10.83
2023-01-09T04:56:44.171Z,11.10
2023-01-09T04:59:10.798Z,12.57
2023-01-09T05:01:37.779Z,10.97
2023-01-09T05:04:05.501Z,12.07
2023-01-09T05:06:32.163Z,11.57
2023-01-09T05:08:59.103Z,11.90
2023-01-09T05:11:28.564Z,12.60
2023-01-09T05:13:55.592Z,11.40
2023-01-09T05:16:22.320Z,11.73
2023-01-09T05:18:49.108Z,11.27
2023-01-09T05:21:15.671Z,13.50
2023-01-09T05:23:42.153Z,12.00
2023-01-09T05:26:08.739Z,11.03
2023-01-09T05:28:35.194Z,13.93
2023-01-09T05:31:04.346Z,10.87
2023-01-09T05:33:30.990Z,10.87
2023-01-09T05:35:59.123Z,12.33
2023-01-09T05:38:25.660Z,11.70
2023-01-09T05:40:52.535Z,10.60
2023-01-09T05:43:19.050Z,11.70
2023-01-09T05:45:47.979Z,11.97
2023-01-09T05:48:14.507Z,11.10
2023-01-09T05:50:41.208Z,10.83
2023-01-09T05:53:07.976Z,11.47
2023-01-09T05:55:34.845Z,11.33
2023-01-09T05:58:01.648Z,10.57
2023-01-09T06:00:28.415Z,11.23
2023-01-09T06:02:55.029Z,11.97
2023-01-09T06:05:21.667Z,12.60
2023-01-09T06:07:48.178Z,12.60
2023-01-09T06:10:15.475Z,13.60
2023-01-09T06:12:46.240Z,12.17
2023-01-09T06:15:12.709Z,14.13
2023-01-09T06:17:39.159Z,14.60
2023-01-09T06:20:06.163Z,12.57
2023-01-09T06:22:32.600Z,11.63
2023-01-09T06:24:59.264Z,13.20
2023-01-09T06:27:25.757Z,15.73
2023-01-09T06:29:52.320Z,15.43
2023-01-09T06:32:18.851Z,15.03
2023-01-09T06:34:45.564Z,14.50
2023-01-09T06:37:12.278Z,14.07
2023-01-09T06:39:38.745Z,13.23
2023-01-09T06:42:05.576Z,13.53
2023-01-09T06:44:33.154Z,12.40
2023-01-09T06:46:59.799Z,15.63
2023-01-09T06:49:26.844Z,14.30
2023-01-09T06:51:53.756Z,14.23
2023-01-09T06:54:21.203Z,15.27
2023-01-09T06:56:47.747Z,12.83
2023-01-09T06:59:14.353Z,14.70
2023-01-09T07:01:41.030Z,13.53
2023-01-09T07:04:10.558Z,15.57
2023-01-09T07:06:37.353Z,15.87
2023-01-09T07:09:06.025Z,14.03
2023-01-09T07:11:33.247Z,13.30
2023-01-09T07:14:00.018Z,15.13
2023-01-09T07:16:26.566Z,13.77
2023-01-09T07:18:54.888Z,14.43
2023-01-09T07:21:21.447Z,15.70
2023-01-09T07:23:48.195Z,13.90
2023-01-09T07:26:17.787Z,13.10
2023-01-09T07:28:44.212Z,16.60
2023-01-09T07:31:10.763Z,14.70
2023-01-09T07:33:37.382Z,15.37
2023-01-09T07:36:04.026Z,15.37
2023-01-09T07:38:33.212Z,13.33
2023-01-09T07:40:59.744Z,15.07
2023-01-09T07:43:26.290Z,14.03
2023-01-09T07:45:52.778Z,15.00
2023-01-09T07:48:19.236Z,14.00
2023-01-09T07:50:45.807Z,16.00
2023-01-09T07:53:12.301Z,15.67
2023-01-09T07:55:38.923Z,14.47
2023-01-09T07:58:05.598Z,14.53
2023-01-09T08:00:33.242Z,15.37
2023-01-09T08:02:59.937Z,15.53
2023-01-09T08:05:26.592Z,14.10
2023-01-09T08:07:53.405Z,14.90
2023-01-09T08:10:19.904Z,14.23
2023-01-09T08:12:47.724Z,15.87
2023-01-09T08:15:14.649Z,15.17
2023-01-09T08:17:42.765Z,14.17
2023-01-09T08:20:14.366Z,16.27
2023-01-09T08:22:50.534Z,16.07
2023-01-09T08:25:18.408Z,17.50
2023-01-09T08:27:45.094Z,12.77
2023-01-09T08:30:12.698Z,15.13
2023-01-09T08:32:39.553Z,14.67
2023-01-09T08:35:06.645Z,15.30
2023-01-09T08:37:33.410Z,14.93
2023-01-09T08:39:59.832Z,14.50
2023-01-09T08:42:45.143Z,14.87
2023-01-09T08:45:31.165Z,15.43
2023-01-09T08:47:57.874Z,16.83
2023-01-09T08:50:24.346Z,14.57
2023-01-09T08:52:50.752Z,15.90
2023-01-09T08:55:17.166Z,16.07
2023-01-09T08:57:51.107Z,14.63
2023-01-09T09:00:19.786Z,14.83
2023-01-09T09:02:50.415Z,14.87
2023-01-09T09:05:17.276Z,14.60
2023-01-09T09:07:43.793Z,13.90
2023-01-09T09:10:10.929Z,14.70
2023-01-09T09:12:37.624Z,15.07
2023-01-09T09:15:13.494Z,14.97
2023-01-09T09:17:44.594Z,13.93
2023-01-09T09:20:11.998Z,15.50
2023-01-09T09:22:38.881Z,14.50
2023-01-09T09:25:06.065Z,15.20
2023-01-09T09:27:33.451Z,13.10
2023-01-09T09:29:59.921Z,13.87
2023-01-09T09:32:26.338Z,13.90
2023-01-09T09:34:52.765Z,14.80
2023-01-09T09:37:19.271Z,13.33
2023-01-09T09:39:45.833Z,12.67
2023-01-09T09:42:40.405Z,15.53
2023-01-09T09:45:18.987Z,14.70
2023-01-09T09:48:30.052Z,14.03
2023-01-09T09:51:04.562Z,16.30
2023-01-09T09:54:14.041Z,14.80
2023-01-09T09:57:12.431Z,14.87
2023-01-09T09:59:42.324Z,14.27
2023-01-09T10:02:08.726Z,11.57
2023-01-09T10:04:39.782Z,11.73
2023-01-09T10:07:14.382Z,15.00
2023-01-09T10:09:54.381Z,11.93
2023-01-09T10:12:28.715Z,12.97
2023-01-09T10:14:57.671Z,13.43
2023-01-09T10:17:45.415Z,11.30
2023-01-09T10:20:48.144Z,10.93
2023-01-09T10:23:47.087Z,14.57
2023-01-09T10:26:49.843Z,18.07
2023-01-09T10:29:22.616Z,17.90
2023-01-09T10:31:56.327Z,11.93
2023-01-09T10:34:41.513Z,8.30
2023-01-09T10:37:15.447Z,8.93
2023-01-09T10:39:52.398Z,9.33
2023-01-09T10:42:47.809Z,10.10
2023-01-09T10:45:23.975Z,8.90
2023-01-09T10:47:50.577Z,8.47
2023-01-09T10:50:35.080Z,8.17
2023-01-09T10:53:13.557Z,8.17
2023-01-09T10:55:47.787Z,7.97
2023-01-09T10:58:17.900Z,9.43
2023-01-09T11:00:46.557Z,8.00
2023-01-09T11:03:17.948Z,8.60
2023-01-09T11:05:59.253Z,9.73
2023-01-09T11:08:35.323Z,7.63
2023-01-09T11:11:11.869Z,8.97
2023-01-09T11:13:53.371Z,7.83
2023-01-09T11:16:21.920Z,6.97
2023-01-09T11:18:57.710Z,8.70
2023-01-09T11:21:56.696Z,8.43
2023-01-09T11:24:29.271Z,7.30
2023-01-09T11:27:23.823Z,6.60
2023-01-09T11:30:22.351Z,6.50
2023-01-09T11:32:49.291Z,6.33
2023-01-09T11:35:34.120Z,6.70
2023-01-09T11:38:05.383Z,8.27
2023-01-09T11:40:48.171Z,6.60
2023-01-09T11:43:33.143Z,5.50
2023-01-09T11:46:05.100Z,8.20
2023-01-09T11:48:31.501Z,7.07
2023-01-09T11:51:01.618Z,5.47
2023-01-09T11:53:30.445Z,4.83
2023-01-09T11:56:03.684Z,7.13
2023-01-09T11:58:37.193Z,4.80
2023-01-09T12:01:08.712Z,5.27
2023-01-09T12:03:59.303Z,6.20
2023-01-09T12:07:04.654Z,6.13
2023-01-09T12:09:34.267Z,4.50
2023-01-09T12:12:01.421Z,4.33
2023-01-09T12:15:10.098Z,5.97
2023-01-09T12:18:10.043Z,4.00
2023-01-09T12:20:39.839Z,4.03
2023-01-09T12:23:21.205Z,5.80
2023-01-09T12:25:50.764Z,4.10
2023-01-09T12:28:42.621Z,4.00
2023-01-09T12:31:23.800Z,5.57
2023-01-09T12:34:12.225Z,3.07
2023-01-09T12:36:51.774Z,3.13
2023-01-09T12:40:02.179Z,4.20
2023-01-09T12:42:45.404Z,3.40
2023-01-09T12:45:34.645Z,3.83
2023-01-09T12:48:26.519Z,5.63
2023-01-09T12:51:23.949Z,3.30
2023-01-09T12:54:19.701Z,3.30
2023-01-09T12:56:55.821Z,3.27
2023-01-09T12:59:30.736Z,3.93
2023-01-09T13:02:09.113Z,5.20
2023-01-09T13:04:43.972Z,3.87
2023-01-09T13:07:22.705Z,4.23
2023-01-09T13:09:59.681Z,6.63
2023-01-09T13:12:32.607Z,5.20
2023-01-09T13:15:07.227Z,3.10
2023-01-09T13:17:42.335Z,2.60
2023-01-09T13:20:33.675Z,3.80
2023-01-09T13:23:05.095Z,3.77
2023-01-09T13:25:47.937Z,5.07
2023-01-09T13:28:32.493Z,4.00
2023-01-09T13:31:01.768Z,3.83
2023-01-09T13:33:35.891Z,3.83
2023-01-09T13:36:03.503Z,5.47
2023-01-09T13:38:32.541Z,4.53
2023-01-09T13:41:26.091Z,3.33
2023-01-09T13:43:54.244Z,3.60
2023-01-09T13:46:20.896Z,4.07
2023-01-09T13:48:50.713Z,2.53
2023-01-09T13:51:37.997Z,4.07
2023-01-09T13:54:08.404Z,4.43
2023-01-09T13:57:28.711Z,4.13
2023-01-09T14:00:19.112Z,2.73
2023-01-09T14:02:49.650Z,4.13
2023-01-09T14:05:25.351Z,2.70
2023-01-09T14:08:03.147Z,4.40
2023-01-09T14:10:35.314Z,5.03
2023-01-09T14:13:08.267Z,4.43
2023-01-09T14:15:39.413Z,5.73
2023-01-09T14:18:15.950Z,3.67
2023-01-09T14:20:57.141Z,3.73
2023-01-09T14:23:45.965Z,2.93
2023-01-09T14:26:25.661Z,7.03
2023-01-09T14:28:55.003Z,4.37
2023-01-09T14:31:32.255Z,5.47
2023-01-09T14:34:31.424Z,3.20
2023-01-09T14:37:01.572Z,3.83
2023-01-09T14:39:32.028Z,4.17
2023-01-09T14:42:07.890Z,4.00
2023-01-09T14:44:43.190Z,5.73
2023-01-09T14:47:15.838Z,4.13
2023-01-09T14:50:06.997Z,3.87
2023-01-09T14:52:38.956Z,5.13
2023-01-09T14:55:40.008Z,3.50
2023-01-09T14:58:17.683Z,3.90
2023-01-09T15:00:53.732Z,4.47
2023-01-09T15:03:22.460Z,3.30
2023-01-09T15:05:49.420Z,5.67
2023-01-09T15:08:22.555Z,4.10
2023-01-09T15:10:52.467Z,4.23
2023-01-09T15:13:28.270Z,4.40
2023-01-09T15:15:55.185Z,3.60
2023-01-09T15:18:25.644Z,5.37
2023-01-09T15:20:56.676Z,4.40
2023-01-09T15:23:29.238Z,4.50
2023-01-09T15:26:17.196Z,4.07
2023-01-09T15:28:43.977Z,4.33
2023-01-09T15:31:15.953Z,3.83
2023-01-09T15:33:45.128Z,3.80
2023-01-09T15:36:18.710Z,2.97
2023-01-09T15:38:46.785Z,3.70
2023-01-09T15:41:37.468Z,3.47
2023-01-09T15:44:06.766Z,3.33
2023-01-09T15:46:33.269Z,4.40
2023-01-09T15:49:00.284Z,4.00
2023-01-09T15:51:27.341Z,8.07
2023-01-09T15:53:57.397Z,4.13
2023-01-09T15:56:25.556Z,6.83
2023-01-09T15:58:54.201Z,5.03
2023-01-09T16:01:31.263Z,4.50
2023-01-09T16:04:03.729Z,5.30
2023-01-09T16:06:33.362Z,5.10
2023-01-09T16:09:00.821Z,5.30
2023-01-09T16:11:32.576Z,3.43
2023-01-09T16:14:14.522Z,4.13
2023-01-09T16:16:44.258Z,7.20
2023-01-09T16:19:44.084Z,3.70
2023-01-09T16:22:21.697Z,3.47
2023-01-09T16:24:49.370Z,2.73
2023-01-09T16:27:27.027Z,2.57
2023-01-09T16:29:57.847Z,8.40
2023-01-09T16:32:29.423Z,3.80
2023-01-09T16:35:04.686Z,3.23
2023-01-09T16:37:32.315Z,2.50
2023-01-09T16:40:08.219Z,2.10
2023-01-09T16:42:53.478Z,2.50
2023-01-09T16:45:31.276Z,3.87
2023-01-09T16:47:58.246Z,3.03
2023-01-09T16:50:29.854Z,2.70
2023-01-09T16:52:57.851Z,2.70
2023-01-09T16:55:24.600Z,5.57
2023-01-09T16:57:51.623Z,3.47
2023-01-09T17:00:20.694Z,1.87
2023-01-09T17:02:51.026Z,2.60
2023-01-09T17:05:17.655Z,3.73
2023-01-09T17:07:52.447Z,2.63
2023-01-09T17:10:24.166Z,2.87
2023-01-09T17:12:50.868Z,3.93
2023-01-09T17:15:17.971Z,2.33
2023-01-09T17:17:44.916Z,2.53
2023-01-09T17:20:18.346Z,2.60
2023-01-09T17:22:44.946Z,2.70
2023-01-09T17:25:37.690Z,4.40
2023-01-09T17:28:24.416Z,2.93
2023-01-09T17:30:51.169Z,4.33
2023-01-09T17:33:19.185Z,4.07
2023-01-09T17:35:46.157Z,2.77
2023-01-09T17:38:15.485Z,2.53
2023-01-09T17:40:42.815Z,3.90
2023-01-09T17:43:09.618Z,4.07
2023-01-09T17:45:43.318Z,2.33
2023-01-09T17:48:21.993Z,5.53
2023-01-09T17:50:52.333Z,2.30
2023-01-09T17:53:20.640Z,2.13
2023-01-09T17:55:50.980Z,2.23
2023-01-09T17:58:30.391Z,2.33
2023-01-09T18:00:58.292Z,2.10
2023-01-09T18:03:30.844Z,4.07
2023-01-09T18:05:57.387Z,2.40
2023-01-09T18:08:23.989Z,3.73
2023-01-09T18:10:53.748Z,3.10
2023-01-09T18:13:23.263Z,3.70
2023-01-09T18:15:54.930Z,2.00
2023-01-09T18:18:22.462Z,1.70
2023-01-09T18:20:50.079Z,2.90
2023-01-09T18:23:16.776Z,2.57
2023-01-09T18:25:44.104Z,1.80
2023-01-09T18:28:15.164Z,2.73
2023-01-09T18:30:45.096Z,3.20
2023-01-09T18:33:12.877Z,3.70
2023-01-09T18:35:43.279Z,5.13
2023-01-09T18:38:11.361Z,2.23
2023-01-09T18:40:38.253Z,2.60
2023-01-09T18:43:05.954Z,3.77
2023-01-09T18:45:32.958Z,3.40
2023-01-09T18:47:59.796Z,4.00
2023-01-09T18:50:26.391Z,2.80
2023-01-09T18:52:54.348Z,3.10
2023-01-09T18:55:21.911Z,3.43
2023-01-09T18:57:48.853Z,3.20
2023-01-09T19:00:15.907Z,4.33
2023-01-09T19:02:42.329Z,3.13
2023-01-09T19:05:11.303Z,3.67
2023-01-09T19:07:37.834Z,10.87
2023-01-09T19:10:04.763Z,3.90
2023-01-09T19:12:31.217Z,3.67
2023-01-09T19:14:57.612Z,4.63
2023-01-09T19:17:24.062Z,3.67
2023-01-09T19:19:50.443Z,4.10
2023-01-09T19:22:16.923Z,2.97
2023-01-09T19:24:43.454Z,1.70
2023-01-09T19:27:09.880Z,2.53
2023-01-09T19:29:37.020Z,1.93
2023-01-09T19:32:04.552Z,2.20
2023-01-09T19:34:31.111Z,2.10
2023-01-09T19:36:57.599Z,2.33
2023-01-09T19:39:24.366Z,2.50
2023-01-09T19:41:51.072Z,3.53
2023-01-09T19:44:18.951Z,3.20
2023-01-09T19:46:45.457Z,2.40
2023-01-09T19:49:11.877Z,4.53
2023-01-09T19:51:38.586Z,5.43
2023-01-09T19:54:07.694Z,2.63
2023-01-09T19:56:40.569Z,3.60
2023-01-09T19:59:08.061Z,3.50
2023-01-09T20:01:37.268Z,4.33
2023-01-09T20:04:09.945Z,3.73
2023-01-09T20:06:41.440Z,3.87
2023-01-09T20:09:08.521Z,2.37
2023-01-09T20:11:35.105Z,1.93
2023-01-09T20:14:01.630Z,2.83
2023-01-09T20:16:30.708Z,2.07
2023-01-09T20:18:59.275Z,2.27
2023-01-09T20:21:27.805Z,1.70
2023-01-09T20:23:56.637Z,3.30
2023-01-09T20:26:24.617Z,2.23
2023-01-09T20:28:52.237Z,2.70
2023-01-09T20:31:20.823Z,2.60
2023-01-09T20:33:48.842Z,1.77
2023-01-09T20:36:15.880Z,3.30
2023-01-09T20:38:43.283Z,3.27
2023-01-09T20:41:12.703Z,3.20
2023-01-09T20:43:40.181Z,1.73
2023-01-09T20:46:07.611Z,2.50
2023-01-09T20:48:34.123Z,1.67
2023-01-09T20:51:05.896Z,4.23
2023-01-09T20:53:32.460Z,1.97
2023-01-09T20:56:01.279Z,2.57
2023-01-09T20:58:28.720Z,2.10
2023-01-09T21:00:55.720Z,2.80
2023-01-09T21:03:22.787Z,2.30
2023-01-09T21:05:49.319Z,2.07
2023-01-09T21:08:16.071Z,2.13
2023-01-09T21:10:42.551Z,2.23
2023-01-09T21:13:09.229Z,1.63
2023-01-09T21:15:37.706Z,2.07
2023-01-09T21:18:04.432Z,1.97
2023-01-09T21:20:30.866Z,1.50
2023-01-09T21:22:57.325Z,1.33
2023-01-09T21:25:23.778Z,1.47
2023-01-09T21:27:51.324Z,1.47
2023-01-09T21:30:17.706Z,2.73
2023-01-09T21:32:44.121Z,1.30
2023-01-09T21:35:10.558Z,2.60
2023-01-09T21:37:37.201Z,1.47
2023-01-09T21:40:06.683Z,1.53
2023-01-09T21:42:51.453Z,1.70
2023-01-09T21:45:36.701Z,2.23
2023-01-09T21:48:06.902Z,2.00
2023-01-09T21:50:34.125Z,1.37
2023-01-09T21:53:00.666Z,2.33
2023-01-09T21:55:27.183Z,1.77
2023-01-09T21:57:55.947Z,2.03
2023-01-09T22:00:23.508Z,2.03
2023-01-09T22:02:50.396Z,1.27
2023-01-09T22:05:17.308Z,1.47
2023-01-09T22:07:43.725Z,1.83
2023-01-09T22:10:10.650Z,1.70
2023-01-09T22:12:37.389Z,3.40
2023-01-09T22:15:04.802Z,1.93
2023-01-09T22:17:31.394Z,2.30
2023-01-09T22:19:57.796Z,2.00
2023-01-09T22:22:24.282Z,1.90
2023-01-09T22:24:51.368Z,1.90
2023-01-09T22:27:17.764Z,2.30
2023-01-09T22:29:48.899Z,1.57
2023-01-09T22:32:15.365Z,2.00
2023-01-09T22:34:41.761Z,1.50
2023-01-09T22:37:08.430Z,1.80
2023-01-09T22:39:37.089Z,2.33
2023-01-09T22:42:03.652Z,1.83
2023-01-09T22:44:30.294Z,1.97
2023-01-09T22:46:58.291Z,2.33
2023-01-09T22:49:30.253Z,1.80
2023-01-09T22:51:59.830Z,2.60
2023-01-09T22:54:26.338Z,2.67
2023-01-09T22:56:52.725Z,1.67
2023-01-09T22:59:19.344Z,1.63
2023-01-09T23:01:46.372Z,1.83
2023-01-09T23:04:15.944Z,1.83
2023-01-09T23:06:43.389Z,2.13
2023-01-09T23:09:10.065Z,2.30
2023-01-09T23:11:54.836Z,1.50
2023-01-09T23:14:21.927Z,1.77
2023-01-09T23:16:48.428Z,2.37
2023-01-09T23:19:15.494Z,2.57
2023-01-09T23:21:43.541Z,1.80
2023-01-09T23:24:11.514Z,2.73
2023-01-09T23:26:40.864Z,3.00
2023-01-09T23:29:07.702Z,1.93
2023-01-09T23:31:34.659Z,2.20
2023-01-09T23:34:01.409Z,3.80
2023-01-09T23:36:28.118Z,2.67
2023-01-09T23:38:54.555Z,1.97
2023-01-09T23:41:22.427Z,3.73
2023-01-09T23:43:48.831Z,2.67
2023-01-09T23:46:15.280Z,2.37
2023-01-09T23:48:41.747Z,5.83
2023-01-09T23:51:08.267Z,2.20
2023-01-09T23:53:34.764Z,2.20
2023-01-09T23:56:01.601Z,2.23
2023-01-09T23:58:27.970Z,2.17
